Time;durP1;ratioP1;P1;durP2;ratioP2;P2;SDS_P1;SDS_P2;PMS_P1;PMS_P2;Temp;Humidity;BMP_temperature;BMP_pressure;BME280_temperature;BME280_humidity;BME280_pressure;Samples;Min_cycle;Max_cycle;Signal;HPM_P1;HPM_P2
2022/04/09 00:02:12;;;;;;;5.03;1.52;;;;;;;7.01;100.00;99822.88;5047302;28;20131;-72
2022/04/09 00:04:39;;;;;;;13.65;2.80;;;;;;;7.01;100.00;99831.13;5048000;28;20049;-72
2022/04/09 00:07:05;;;;;;;15.75;2.70;;;;;;;7.06;100.00;99832.69;5048407;28;20144;-71
2022/04/09 00:09:32;;;;;;;10.25;2.47;;;;;;;6.99;100.00;99838.19;5050459;28;20095;-71
2022/04/09 00:11:58;;;;;;;5.32;2.03;;;;;;;7.01;100.00;99849.56;5046952;28;20087;-73
2022/04/09 00:14:25;;;;;;;15.32;2.78;;;;;;;6.99;100.00;99849.97;5047152;28;20095;-73
2022/04/09 00:16:51;;;;;;;13.68;2.90;;;;;;;6.99;100.00;99849.97;5047677;28;20068;-71
2022/04/09 00:19:18;;;;;;;13.93;3.10;;;;;;;6.95;100.00;99864.91;5045749;28;20044;-71
2022/04/09 00:21:46;;;;;;;12.23;3.05;;;;;;;6.97;100.00;99862.56;5045611;28;20325;-72
2022/04/09 00:24:13;;;;;;;20.63;2.75;;;;;;;6.96;100.00;99860.97;5040514;28;20045;-71
2022/04/09 00:26:40;;;;;;;13.50;3.25;;;;;;;7.02;100.00;99870.41;5047631;28;20610;-70
2022/04/09 00:29:07;;;;;;;10.98;2.80;;;;;;;6.90;100.00;99879.84;5047218;28;20083;-72
2022/04/09 00:31:34;;;;;;;7.15;2.20;;;;;;;6.91;100.00;99877.84;5046490;28;20136;-71
2022/04/09 00:34:01;;;;;;;23.00;4.18;;;;;;;6.96;100.00;99889.25;5045078;28;20048;-72
2022/04/09 00:36:27;;;;;;;9.82;2.90;;;;;;;6.90;100.00;99890.03;5047612;28;20067;-70
2022/04/09 00:38:53;;;;;;;3.10;1.25;;;;;;;6.78;100.00;99893.97;5047545;28;20124;-72
2022/04/09 00:41:20;;;;;;;14.48;3.20;;;;;;;6.76;100.00;99899.09;5045703;28;20060;-71
2022/04/09 00:43:46;;;;;;;9.98;2.78;;;;;;;6.71;100.00;99904.97;5046831;28;20057;-71
2022/04/09 00:46:14;;;;;;;14.18;1.08;;;;;;;6.59;100.00;99915.53;5047533;28;20041;-74
2022/04/09 00:48:42;;;;;;;15.02;3.35;;;;;;;6.69;100.00;99907.31;5057667;28;20068;-71
2022/04/09 00:51:10;;;;;;;21.50;3.28;;;;;;;6.63;100.00;99930.06;5051496;28;20478;-74
2022/04/09 00:53:42;;;;;;;19.63;3.42;;;;;;;6.64;100.00;99926.13;5048449;28;20045;-71
2022/04/09 00:56:13;;;;;;;11.20;3.60;;;;;;;6.58;100.00;99938.72;5044480;28;20148;-71
2022/04/09 00:59:06;;;;;;;12.73;2.85;;;;;;;6.59;100.00;99945.78;5044207;28;20055;-73
2022/04/09 01:01:37;;;;;;;13.75;2.95;;;;;;;6.56;100.00;99949.28;5045975;28;20520;-73
2022/04/09 01:04:08;;;;;;;6.82;1.92;;;;;;;6.45;100.00;99957.50;5046002;28;20429;-72
2022/04/09 01:06:35;;;;;;;5.78;1.85;;;;;;;6.45;100.00;99954.75;5046298;28;20466;-72
2022/04/09 01:09:04;;;;;;;7.55;1.73;;;;;;;6.49;100.00;99963.81;5050752;28;20049;-71
2022/04/09 01:11:32;;;;;;;7.97;2.42;;;;;;;6.47;100.00;99960.66;5046821;28;20057;-71
2022/04/09 01:13:59;;;;;;;4.03;1.52;;;;;;;6.37;100.00;99960.59;5041010;28;20052;-71
2022/04/09 01:16:28;;;;;;;20.75;4.03;;;;;;;6.44;100.00;99971.63;5045034;28;20052;-70
2022/04/09 01:18:57;;;;;;;15.75;3.72;;;;;;;6.41;100.00;99975.16;5046526;28;20448;-72
2022/04/09 01:21:24;;;;;;;14.02;3.85;;;;;;;6.44;100.00;99982.63;5045509;28;20241;-70
2022/04/09 01:23:51;;;;;;;17.13;3.58;;;;;;;6.40;100.00;99984.56;5047009;28;20060;-71
2022/04/09 01:26:18;;;;;;;10.23;3.00;;;;;;;6.25;100.00;99991.19;5046936;28;20140;-71
2022/04/09 01:28:45;;;;;;;19.95;3.65;;;;;;;6.33;100.00;99999.06;5046964;28;20072;-72
2022/04/09 01:31:11;;;;;;;19.65;3.83;;;;;;;6.28;100.00;100004.16;5044849;28;20152;-71
2022/04/09 01:33:38;;;;;;;17.40;3.78;;;;;;;6.33;100.00;99999.06;5046215;28;20616;-71
2022/04/09 01:36:05;;;;;;;11.13;2.92;;;;;;;6.20;100.00;100000.56;5045497;28;20053;-71
2022/04/09 01:38:34;;;;;;;10.95;3.05;;;;;;;6.27;100.00;100008.06;5053106;28;20485;-72
2022/04/09 01:41:01;;;;;;;18.77;3.53;;;;;;;6.30;100.00;100018.28;5046491;28;20048;-72
2022/04/09 01:43:28;;;;;;;23.23;4.07;;;;;;;6.24;100.00;100017.09;5045383;28;20053;-72
2022/04/09 01:45:54;;;;;;;10.77;3.72;;;;;;;6.30;100.00;100026.50;5047721;28;20393;-71
2022/04/09 01:48:21;;;;;;;22.67;4.45;;;;;;;6.29;100.00;100030.44;5048678;28;20133;-72
2022/04/09 01:50:48;;;;;;;16.15;4.22;;;;;;;6.30;100.00;100038.31;5043210;28;20044;-72
2022/04/09 01:53:15;;;;;;;8.25;3.13;;;;;;;6.26;100.00;100051.25;5042063;28;20045;-71
2022/04/09 01:55:43;;;;;;;19.05;4.18;;;;;;;6.31;100.00;100056.34;5043530;28;20049;-72
2022/04/09 01:58:10;;;;;;;14.20;4.05;;;;;;;6.31;100.00;100063.81;5047263;28;20049;-71
2022/04/09 02:00:37;;;;;;;24.00;4.65;;;;;;;6.37;100.00;100056.78;5048789;28;20063;-73
2022/04/09 02:03:03;;;;;;;11.15;3.47;;;;;;;6.33;100.00;100064.22;5048190;28;20095;-72
2022/04/09 02:05:30;;;;;;;20.33;4.22;;;;;;;6.41;100.00;100069.38;5050640;28;20052;-71
2022/04/09 02:07:58;;;;;;;12.30;3.63;;;;;;;6.34;100.00;100065.81;5058313;28;20072;-71
2022/04/09 02:10:24;;;;;;;28.15;5.55;;;;;;;6.31;100.00;100067.34;5050972;28;20568;-71
2022/04/09 02:12:50;;;;;;;16.13;4.80;;;;;;;6.29;100.00;100077.16;5048329;28;20096;-71
2022/04/09 02:15:17;;;;;;;7.93;1.83;;;;;;;6.27;100.00;100072.03;5049437;28;20053;-72
2022/04/09 02:17:44;;;;;;;17.17;3.13;;;;;;;6.30;100.00;100074.03;5050797;28;20056;-72
2022/04/09 02:20:12;;;;;;;16.73;4.25;;;;;;;6.32;100.00;100074.44;5050354;28;20051;-71
2022/04/09 02:22:40;;;;;;;19.27;4.45;;;;;;;6.39;100.00;100079.97;5047267;28;20523;-71
2022/04/09 02:25:10;;;;;;;20.92;5.47;;;;;;;6.39;100.00;100087.41;5050045;28;20059;-71
2022/04/09 02:27:37;;;;;;;19.38;4.97;;;;;;;6.48;100.00;100085.13;5050890;28;20055;-71
2022/04/09 02:30:06;;;;;;;14.15;3.63;;;;;;;6.42;100.00;100092.94;5050303;28;20057;-72
2022/04/09 02:32:51;;;;;;;20.75;4.95;;;;;;;6.50;100.00;100097.28;5049619;28;20091;-72
2022/04/09 02:35:18;;;;;;;23.27;4.43;;;;;;;6.57;100.00;100108.31;5049048;28;20541;-71
2022/04/09 02:37:46;;;;;;;5.38;1.88;;;;;;;6.41;100.00;100118.06;5049224;28;20053;-72
2022/04/09 02:40:12;;;;;;;21.42;4.28;;;;;;;6.46;100.00;100112.97;5057200;28;20131;-72
2022/04/09 02:42:40;;;;;;;14.75;4.20;;;;;;;6.53;100.00;100121.25;5052222;28;20140;-71
2022/04/09 02:45:08;;;;;;;12.80;2.70;;;;;;;6.45;100.00;100132.59;5081812;28;20059;-72
2022/04/09 02:47:35;;;;;;;23.00;4.00;;;;;;;6.50;100.00;100137.72;5055604;28;20056;-72
2022/04/09 02:50:04;;;;;;;21.15;4.97;;;;;;;6.52;100.00;100143.63;5050230;28;20049;-72
2022/04/09 02:52:39;;;;;;;17.48;4.35;;;;;;;6.58;100.00;100145.63;5046746;28;20052;-72
2022/04/09 02:55:06;;;;;;;8.07;2.22;;;;;;;6.56;100.00;100153.47;5043147;28;20049;-72
2022/04/09 02:57:34;;;;;;;19.08;4.38;;;;;;;6.55;100.00;100148.38;5048581;28;20044;-72
2022/04/09 03:00:01;;;;;;;26.60;4.72;;;;;;;6.64;100.00;100165.28;5043826;28;20048;-71
2022/04/09 03:02:28;;;;;;;15.75;4.25;;;;;;;6.58;100.00;100156.63;5048046;28;20084;-71
2022/04/09 03:04:56;;;;;;;8.50;2.70;;;;;;;6.53;100.00;100164.44;5049753;28;20064;-72
2022/04/09 03:07:23;;;;;;;17.77;4.32;;;;;;;6.59;100.00;100157.41;5052088;28;20059;-72
2022/04/09 03:09:50;;;;;;;20.23;4.50;;;;;;;6.61;100.00;100171.56;5055901;28;20051;-72
2022/04/09 03:12:16;;;;;;;16.30;5.13;;;;;;;6.54;100.00;100175.06;5046866;28;20140;-71
2022/04/09 03:14:46;;;;;;;21.88;5.38;;;;;;;6.52;100.00;100166.38;5049873;28;20044;-71
2022/04/09 03:17:12;;;;;;;4.18;1.63;;;;;;;6.42;100.00;100175.38;5049563;28;20045;-71
2022/04/09 03:19:39;;;;;;;16.30;3.45;;;;;;;6.35;100.00;100183.53;5049121;28;20115;-71
2022/04/09 03:22:06;;;;;;;19.15;4.38;;;;;;;6.46;100.00;100189.94;5046864;28;20049;-72
2022/04/09 03:24:33;;;;;;;10.40;3.75;;;;;;;6.30;100.00;100196.84;5047901;28;20095;-72
2022/04/09 03:26:59;;;;;;;28.50;4.80;;;;;;;6.37;100.00;100192.22;5047962;28;20060;-73
2022/04/09 03:29:26;;;;;;;8.82;2.30;;;;;;;6.30;100.00;100208.63;5049098;28;20053;-72
2022/04/09 03:31:52;;;;;;;5.72;2.35;;;;;;;6.34;100.00;100211.44;5047615;28;20515;-71
2022/04/09 03:34:19;;;;;;;11.77;3.20;;;;;;;6.37;100.00;100214.19;5048420;28;20049;-72
2022/04/09 03:36:46;;;;;;;15.10;3.00;;;;;;;6.36;100.00;100215.38;5048937;28;20523;-72
2022/04/09 03:39:12;;;;;;;22.25;4.82;;;;;;;6.30;100.00;100219.63;5048047;28;20053;-71
2022/04/09 03:41:39;;;;;;;14.52;3.53;;;;;;;6.40;100.00;100226.38;5048180;28;20061;-72
2022/04/09 03:44:06;;;;;;;23.13;3.75;;;;;;;6.30;100.00;100224.31;5048342;28;20533;-71
2022/04/09 03:46:32;;;;;;;22.25;4.10;;;;;;;6.29;100.00;100218.06;5047343;28;20513;-72
2022/04/09 03:48:59;;;;;;;18.92;4.25;;;;;;;6.29;100.00;100231.00;5049491;28;20137;-71
2022/04/09 03:51:25;;;;;;;11.18;2.80;;;;;;;6.18;100.00;100235.63;5047708;28;20045;-71
2022/04/09 03:53:52;;;;;;;23.88;3.92;;;;;;;6.24;100.00;100236.84;5048647;28;20662;-73
2022/04/09 03:56:18;;;;;;;15.30;3.08;;;;;;;6.20;100.00;100255.25;5049197;28;20045;-72
2022/04/09 03:58:47;;;;;;;15.63;3.33;;;;;;;6.19;100.00;100253.66;5049901;28;20076;-72
2022/04/09 04:01:14;;;;;;;18.00;3.53;;;;;;;6.24;100.00;100256.84;5047705;28;20079;-71
2022/04/09 04:03:41;;;;;;;13.23;2.45;;;;;;;6.14;100.00;100259.53;5048590;28;20139;-73
2022/04/09 04:06:07;;;;;;;13.57;3.05;;;;;;;6.13;100.00;100263.41;5047091;28;20468;-71
2022/04/09 04:08:34;;;;;;;12.10;3.28;;;;;;;6.16;100.00;100257.16;5058908;28;20052;-71
2022/04/09 04:11:02;;;;;;;16.75;3.67;;;;;;;6.15;100.00;100266.59;5047501;28;20133;-71
2022/04/09 04:13:30;;;;;;;10.23;1.98;;;;;;;6.09;100.00;100259.84;5044931;28;20458;-71
2022/04/09 04:15:57;;;;;;;21.05;3.75;;;;;;;6.13;100.00;100264.22;5048662;28;20128;-72
2022/04/09 04:18:23;;;;;;;10.10;3.35;;;;;;;5.94;100.00;100266.38;5046606;28;20045;-71
2022/04/09 04:20:50;;;;;;;18.27;4.15;;;;;;;5.93;100.00;100265.59;5047671;28;20053;-71
2022/04/09 04:23:16;;;;;;;13.45;3.53;;;;;;;5.92;100.00;100269.50;5047253;28;20136;-71
2022/04/09 04:25:43;;;;;;;15.07;3.58;;;;;;;5.89;100.00;100277.69;5047910;28;20051;-72
2022/04/09 04:28:09;;;;;;;23.15;4.18;;;;;;;5.95;100.00;100285.22;5048335;28;20076;-71
2022/04/09 04:30:36;;;;;;;15.82;4.15;;;;;;;5.81;100.00;100284.25;5047212;28;20519;-71
2022/04/09 04:33:02;;;;;;;16.02;3.45;;;;;;;5.75;100.00;100292.03;5047205;28;20049;-71
2022/04/09 04:35:29;;;;;;;13.32;4.25;;;;;;;5.63;100.00;100299.75;5048645;28;20126;-72
2022/04/09 04:37:55;;;;;;;12.38;1.35;;;;;;;5.65;100.00;100300.13;5046553;28;20053;-73
2022/04/09 04:40:22;;;;;;;14.23;3.13;;;;;;;5.73;100.00;100319.06;5050051;28;20073;-71
2022/04/09 04:42:49;;;;;;;9.07;2.65;;;;;;;5.65;100.00;100322.09;5047315;28;20152;-71
2022/04/09 04:45:16;;;;;;;13.77;3.63;;;;;;;5.66;100.00;100327.22;5047816;28;20474;-71
2022/04/09 04:47:47;;;;;;;20.92;3.55;;;;;;;5.65;100.00;100330.31;5055011;28;20136;-71
2022/04/09 04:50:15;;;;;;;23.73;3.50;;;;;;;5.57;100.00;100340.41;5054294;28;20148;-72
2022/04/09 04:52:42;;;;;;;19.38;3.65;;;;;;;5.61;100.00;100335.00;5045758;28;20685;-72
2022/04/09 04:55:09;;;;;;;19.40;4.15;;;;;;;5.65;100.00;100341.31;5048626;28;20053;-73
2022/04/09 04:57:55;;;;;;;21.55;4.82;;;;;;;5.61;100.00;100340.47;5085366;28;20124;-73
2022/04/09 05:00:24;;;;;;;14.80;3.47;;;;;;;5.61;100.00;100345.97;5047324;28;20644;-72
2022/04/09 05:02:51;;;;;;;17.17;3.00;;;;;;;5.57;100.00;100350.63;5046850;28;20343;-73
2022/04/09 05:05:18;;;;;;;22.90;3.95;;;;;;;5.66;100.00;100359.34;5047946;28;20068;-71
2022/04/09 05:07:47;;;;;;;14.90;3.20;;;;;;;5.55;100.00;100353.75;5052551;28;20062;-72
2022/04/09 05:10:16;;;;;;;8.65;2.55;;;;;;;5.56;100.00;100351.78;5047184;28;20053;-72
2022/04/09 05:12:42;;;;;;;5.63;1.75;;;;;;;5.47;100.00;100372.06;5045552;28;20156;-71
2022/04/09 05:15:11;;;;;;;16.27;3.45;;;;;;;5.59;100.00;100360.06;5047928;28;20053;-71
2022/04/09 05:17:38;;;;;;;6.93;2.35;;;;;;;5.43;100.00;100368.47;5046501;28;20168;-72
2022/04/09 05:20:06;;;;;;;9.65;3.17;;;;;;;5.41;100.00;100359.81;5047337;28;20085;-71
2022/04/09 05:22:33;;;;;;;7.15;1.75;;;;;;;5.59;100.00;100378.47;5078518;28;20049;-71
2022/04/09 05:24:59;;;;;;;20.70;3.38;;;;;;;5.71;100.00;100378.25;5048048;28;20053;-72
2022/04/09 05:27:27;;;;;;;13.95;3.65;;;;;;;5.75;100.00;100377.13;5047802;28;20473;-73
2022/04/09 05:29:53;;;;;;;13.15;3.50;;;;;;;5.69;100.00;100375.06;5046459;28;20153;-71
2022/04/09 05:32:20;;;;;;;19.88;4.28;;;;;;;5.66;100.00;100384.06;5046568;28;20072;-71
2022/04/09 05:34:47;;;;;;;17.30;3.05;;;;;;;5.61;100.00;100376.97;5049886;28;20493;-73
2022/04/09 05:37:14;;;;;;;15.82;3.40;;;;;;;5.74;100.00;100388.50;5049399;28;20055;-72
2022/04/09 05:39:42;;;;;;;12.90;2.85;;;;;;;5.82;100.00;100401.16;5050407;28;20574;-73
2022/04/09 05:42:12;;;;;;;13.75;3.90;;;;;;;5.87;100.00;100406.34;5047554;28;20086;-74
2022/04/09 05:44:38;;;;;;;28.08;5.32;;;;;;;5.89;100.00;100406.75;5050412;28;20155;-73
2022/04/09 05:47:05;;;;;;;19.63;5.13;;;;;;;5.89;100.00;100415.78;5052107;28;20045;-72
2022/04/09 05:49:32;;;;;;;20.00;4.93;;;;;;;5.90;100.00;100427.56;5052090;28;20052;-72
2022/04/09 05:51:58;;;;;;;27.20;4.00;;;;;;;5.91;100.00;100431.88;5049318;28;20671;-72
2022/04/09 05:54:25;;;;;;;18.50;3.78;;;;;;;5.98;100.00;100432.78;5050866;28;20059;-71
2022/04/09 05:56:51;;;;;;;16.65;3.50;;;;;;;6.10;100.00;100440.75;5056243;28;20048;-72
2022/04/09 05:59:18;;;;;;;10.70;2.53;;;;;;;5.99;100.00;100439.84;5048444;28;20063;-72
2022/04/09 06:01:46;;;;;;;18.30;4.10;;;;;;;6.12;100.00;100448.63;5044900;28;20049;-72
2022/04/09 06:04:16;;;;;;;18.67;4.22;;;;;;;6.21;100.00;100454.63;5051580;28;20047;-71
2022/04/09 06:06:42;;;;;;;14.00;3.35;;;;;;;6.22;100.00;100458.97;5051679;28;20072;-72
2022/04/09 06:09:10;;;;;;;13.25;2.90;;;;;;;6.20;100.00;100466.78;5063787;28;20067;-73
2022/04/09 06:11:36;;;;;;;13.68;2.50;;;;;;;6.16;100.00;100463.19;5048153;28;20055;-72
2022/04/09 06:14:03;;;;;;;13.95;4.07;;;;;;;6.29;100.00;100468.09;5048030;28;20128;-72
2022/04/09 06:16:33;;;;;;;9.75;2.38;;;;;;;6.29;100.00;100473.56;5050535;28;20056;-72
2022/04/09 06:19:00;;;;;;;9.70;2.63;;;;;;;6.52;100.00;100478.94;5051182;28;20045;-73
2022/04/09 06:21:29;;;;;;;8.70;2.15;;;;;;;6.51;100.00;100475.41;5048052;28;20140;-73
2022/04/09 06:23:56;;;;;;;19.20;3.53;;;;;;;6.38;100.00;100478.78;5050499;28;20547;-71
2022/04/09 06:26:23;;;;;;;6.53;2.13;;;;;;;6.43;100.00;100486.69;5062117;28;20161;-72
2022/04/09 06:28:52;;;;;;;19.25;3.08;;;;;;;6.39;100.00;100477.59;5082674;28;20060;-72
2022/04/09 06:31:18;;;;;;;1.83;1.30;;;;;;;6.47;100.00;100487.50;5053002;28;20045;-72
2022/04/09 06:33:45;;;;;;;20.80;4.00;;;;;;;6.61;100.00;100493.19;5050609;28;20167;-74
2022/04/09 06:36:11;;;;;;;9.63;2.88;;;;;;;6.49;100.00;100496.19;5048729;28;20059;-73
2022/04/09 06:38:38;;;;;;;14.45;1.98;;;;;;;6.76;100.00;100494.91;5052817;28;20051;-73
2022/04/09 06:41:05;;;;;;;9.18;2.47;;;;;;;6.72;100.00;100497.63;5046590;28;20152;-71
2022/04/09 06:43:31;;;;;;;17.85;3.60;;;;;;;6.87;100.00;100509.56;5043260;28;20568;-72
2022/04/09 06:45:58;;;;;;;4.25;1.30;;;;;;;6.82;100.00;100513.44;5049119;28;20463;-71
2022/04/09 06:48:24;;;;;;;17.33;2.97;;;;;;;6.96;100.00;100523.81;5039558;28;20106;-73
2022/04/09 06:50:51;;;;;;;24.80;4.93;;;;;;;7.03;100.00;100518.38;5063786;28;20052;-75
2022/04/09 06:53:17;;;;;;;6.28;1.75;;;;;;;6.95;100.00;100522.25;5053655;28;20128;-75
2022/04/09 06:55:44;;;;;;;20.17;4.82;;;;;;;7.25;100.00;100539.41;5043391;28;20131;-74
2022/04/09 06:58:10;;;;;;;9.43;1.52;;;;;;;7.22;100.00;100534.66;5054948;28;20110;-72
2022/04/09 07:00:37;;;;;;;14.73;3.35;;;;;;;7.28;100.00;100528.44;5049042;28;20061;-70
2022/04/09 07:03:04;;;;;;;13.35;3.03;;;;;;;7.46;100.00;100545.91;5048080;28;20053;-73
2022/04/09 07:05:31;;;;;;;22.80;3.78;;;;;;;7.57;100.00;100546.78;5049779;28;20067;-74
2022/04/09 07:07:57;;;;;;;8.07;2.55;;;;;;;7.68;100.00;100546.88;5055741;28;20500;-73
2022/04/09 07:10:24;;;;;;;9.65;2.80;;;;;;;7.66;100.00;100550.00;5046893;28;20409;-75
2022/04/09 07:12:50;;;;;;;22.83;4.30;;;;;;;7.59;100.00;100554.66;5050272;28;20071;-73
2022/04/09 07:15:17;;;;;;;18.17;3.75;;;;;;;7.69;98.97;100560.25;5054727;28;20064;-74
2022/04/09 07:17:43;;;;;;;7.20;2.47;;;;;;;7.79;97.84;100558.75;5050389;28;20114;-74
2022/04/09 07:20:10;;;;;;;14.15;3.25;;;;;;;7.81;97.38;100565.50;5050574;28;20053;-75
2022/04/09 07:22:38;;;;;;;10.32;1.90;;;;;;;7.90;96.48;100574.19;5050325;28;20081;-73
2022/04/09 07:25:05;;;;;;;7.30;2.35;;;;;;;8.07;95.49;100570.00;5050708;28;20501;-74
2022/04/09 07:27:41;;;;;;;2.35;1.33;;;;;;;8.06;93.74;100568.41;5047415;28;20519;-73
2022/04/09 07:30:12;;;;;;;13.40;2.92;;;;;;;8.28;92.33;100569.34;5069130;28;20494;-73
2022/04/09 07:32:40;;;;;;;2.45;1.02;;;;;;;8.33;92.85;100578.03;5043098;28;20045;-74
2022/04/09 07:35:08;;;;;;;8.32;2.65;;;;;;;8.43;91.48;100582.81;5050250;28;20103;-74
2022/04/09 07:37:43;;;;;;;8.15;2.38;;;;;;;8.11;89.81;100583.78;5048942;28;20053;-74
2022/04/09 07:40:11;;;;;;;16.40;2.55;;;;;;;8.40;90.49;100586.34;5047615;28;20915;-74
2022/04/09 07:42:40;;;;;;;15.68;2.45;;;;;;;8.39;89.33;100593.06;5048446;28;20497;-73
2022/04/09 07:45:07;;;;;;;11.27;3.20;;;;;;;8.46;89.23;100587.56;5049176;28;20120;-73
2022/04/09 07:47:34;;;;;;;16.15;2.67;;;;;;;8.39;89.13;100593.06;5049134;28;20135;-74
2022/04/09 07:50:02;;;;;;;11.00;2.13;;;;;;;8.43;88.96;100593.84;5052224;28;20066;-72
2022/04/09 07:52:29;;;;;;;20.20;3.90;;;;;;;8.62;88.68;100590.81;5047395;28;20629;-73
2022/04/09 07:54:57;;;;;;;19.70;3.30;;;;;;;8.73;88.12;100597.16;5049396;28;20140;-72
2022/04/09 07:57:24;;;;;;;10.23;2.58;;;;;;;8.51;88.67;100601.00;5049873;28;20045;-73
2022/04/09 07:59:55;;;;;;;10.98;3.35;;;;;;;8.49;88.09;100617.13;5046989;28;20080;-72
2022/04/09 08:02:22;;;;;;;14.40;3.50;;;;;;;8.32;88.34;100612.31;5045719;28;20037;-74
2022/04/09 08:04:49;;;;;;;12.55;1.95;;;;;;;8.52;87.53;100621.09;5046988;28;20083;-72
2022/04/09 08:07:16;;;;;;;13.45;2.92;;;;;;;8.36;87.25;100620.59;5051842;28;20055;-73
2022/04/09 08:09:45;;;;;;;13.77;2.85;;;;;;;8.65;87.58;100617.63;5049083;28;20156;-72
2022/04/09 08:12:12;;;;;;;13.52;2.38;;;;;;;8.81;87.58;100631.09;5048466;28;20136;-73
2022/04/09 08:14:40;;;;;;;10.77;2.60;;;;;;;8.91;86.57;100622.84;5049842;28;20057;-73
2022/04/09 08:17:06;;;;;;;10.85;2.45;;;;;;;8.98;86.08;100620.13;5046964;28;20094;-73
2022/04/09 08:19:34;;;;;;;19.13;3.88;;;;;;;8.98;84.93;100636.66;5054954;28;20140;-72
2022/04/09 08:22:05;;;;;;;3.30;1.80;;;;;;;9.17;84.35;100628.06;5048157;28;20063;-72
2022/04/09 08:24:32;;;;;;;12.45;2.80;;;;;;;9.26;85.30;100625.75;5055568;28;20507;-72
2022/04/09 08:26:59;;;;;;;12.88;2.80;;;;;;;9.06;85.70;100641.06;5043933;28;20071;-74
2022/04/09 08:29:26;;;;;;;12.23;2.72;;;;;;;9.04;87.22;100645.41;5033241;28;21897;-74
2022/04/09 08:31:52;;;;;;;8.65;2.45;;;;;;;8.98;85.64;100658.75;5052543;28;20055;-72
2022/04/09 08:34:20;;;;;;;4.85;1.25;;;;;;;9.03;85.84;100650.13;5050069;28;20582;-72
2022/04/09 08:36:47;;;;;;;12.20;3.05;;;;;;;8.90;85.18;100646.09;5046274;28;20129;-73
2022/04/09 08:39:13;;;;;;;11.65;2.28;;;;;;;9.04;86.05;100662.72;5056001;28;20057;-72
2022/04/09 08:41:44;;;;;;;7.20;1.77;;;;;;;9.14;85.27;100644.63;5048317;28;20116;-71
2022/04/09 08:44:12;;;;;;;9.57;2.58;;;;;;;9.24;85.58;100649.38;5048253;28;20414;-72
2022/04/09 08:46:40;;;;;;;3.15;1.77;;;;;;;9.40;87.53;100658.13;5049120;28;20464;-72
2022/04/09 08:49:08;;;;;;;12.45;3.70;;;;;;;9.54;87.35;100650.66;5048618;28;20072;-73
2022/04/09 08:51:35;;;;;;;9.30;2.50;;;;;;;9.44;86.82;100648.66;5047212;28;20549;-75
2022/04/09 08:54:04;;;;;;;8.75;2.80;;;;;;;9.39;85.08;100651.78;5047572;28;20130;-74
2022/04/09 08:56:37;;;;;;;7.82;1.85;;;;;;;9.40;86.22;100652.59;5045213;28;20049;-73
2022/04/09 08:59:04;;;;;;;10.63;2.30;;;;;;;9.67;85.74;100660.16;5047321;28;20094;-73
2022/04/09 09:01:33;;;;;;;10.20;2.00;;;;;;;9.49;83.81;100653.78;5043928;28;20139;-73
2022/04/09 09:04:00;;;;;;;5.68;1.33;;;;;;;9.68;81.85;100653.44;5041290;28;20056;-72
2022/04/09 09:06:30;;;;;;;13.27;2.95;;;;;;;9.91;81.20;100653.88;5048660;28;20114;-72
2022/04/09 09:09:01;;;;;;;11.48;2.22;;;;;;;9.93;80.23;100659.00;5061191;28;20053;-72
2022/04/09 09:11:29;;;;;;;14.50;2.70;;;;;;;10.08;78.57;100661.41;5051468;28;20041;-73
2022/04/09 09:13:57;;;;;;;10.00;2.72;;;;;;;10.00;76.18;100662.53;5051052;28;20072;-73
2022/04/09 09:16:31;;;;;;;10.55;2.70;;;;;;;10.13;76.76;100652.69;5048606;28;20052;-73
2022/04/09 09:19:09;;;;;;;14.30;3.42;;;;;;;10.35;74.50;100654.28;5043446;28;20517;-72
2022/04/09 09:21:35;;;;;;;3.05;0.75;;;;;;;10.26;70.76;100670.47;5047478;28;20093;-72
2022/04/09 09:24:16;;;;;;;2.88;1.67;;;;;;;10.21;70.72;100659.81;5058577;28;20097;-73
2022/04/09 09:26:44;;;;;;;13.50;2.92;;;;;;;10.49;71.46;100651.47;5060259;28;20176;-72
2022/04/09 09:29:23;;;;;;;11.00;2.08;;;;;;;10.44;68.99;100662.16;5047869;28;20064;-73
2022/04/09 09:31:51;;;;;;;8.80;1.90;;;;;;;10.03;69.81;100719.03;5047478;28;20457;-73
2022/04/09 09:34:19;;;;;;;1.35;0.73;;;;;;;9.31;86.33;100749.59;5052911;28;20048;-73
2022/04/09 09:36:47;;;;;;;2.90;0.68;;;;;;;8.57;93.42;100742.06;5055958;28;20053;-73
2022/04/09 09:39:15;;;;;;;2.90;0.95;;;;;;;7.96;99.65;100729.72;5050364;28;20056;-72
2022/04/09 09:42:04;;;;;;;0.60;0.60;;;;;;;7.48;100.00;100736.28;5054103;28;20135;-75
2022/04/09 09:44:45;;;;;;;3.25;1.08;;;;;;;7.44;100.00;100726.41;5042021;28;20052;-74
2022/04/09 09:47:14;;;;;;;1.95;0.80;;;;;;;7.39;100.00;100718.47;5037873;28;20156;-74
2022/04/09 09:49:58;;;;;;;2.28;0.98;;;;;;;7.23;100.00;100724.16;5039010;28;20061;-73
2022/04/09 09:52:34;;;;;;;1.83;0.77;;;;;;;7.30;100.00;100723.47;5035058;28;20053;-74
2022/04/09 09:55:02;;;;;;;2.75;0.98;;;;;;;7.25;100.00;100729.28;5037219;28;20107;-73
2022/04/09 09:57:29;;;;;;;5.60;1.92;;;;;;;7.35;100.00;100723.13;5037532;28;20123;-73
2022/04/09 10:00:02;;;;;;;2.72;1.15;;;;;;;7.46;100.00;100715.81;5039411;28;20059;-72
2022/04/09 10:02:31;;;;;;;6.87;1.77;;;;;;;7.65;100.00;100718.38;5036785;28;20134;-73
2022/04/09 10:04:58;;;;;;;1.50;0.90;;;;;;;7.78;100.00;100717.72;5046968;28;20048;-71
2022/04/09 10:07:25;;;;;;;4.20;1.60;;;;;;;8.08;100.00;100701.09;5058045;28;20080;-70
2022/04/09 10:09:53;;;;;;;0.70;0.60;;;;;;;8.39;100.00;100719.88;5047607;28;20049;-73
2022/04/09 10:12:25;;;;;;;3.72;1.25;;;;;;;8.66;100.00;100723.22;5057282;28;20044;-72
2022/04/09 10:14:57;;;;;;;8.30;1.65;;;;;;;9.05;100.00;100708.44;5049770;28;20227;-73
2022/04/09 10:17:25;;;;;;;1.52;0.98;;;;;;;9.17;100.00;100710.09;5051370;28;20044;-72
2022/04/09 10:19:57;;;;;;;2.15;1.50;;;;;;;9.19;100.00;100713.25;5065350;28;20056;-72
2022/04/09 10:22:26;;;;;;;6.63;1.75;;;;;;;9.54;100.00;100725.25;5055803;28;20044;-75
2022/04/09 10:24:55;;;;;;;7.32;2.72;;;;;;;9.32;92.73;100718.03;5054605;28;20049;-73
2022/04/09 10:27:35;;;;;;;8.40;2.17;;;;;;;9.71;88.79;100718.16;5048258;28;20064;-69
2022/04/09 10:30:03;;;;;;;5.35;0.98;;;;;;;9.94;89.51;100721.38;5048376;28;20077;-72
2022/04/09 10:32:47;;;;;;;6.75;1.80;;;;;;;10.05;86.26;100733.22;5050253;28;20171;-72
2022/04/09 10:35:39;;;;;;;14.52;3.25;;;;;;;10.34;84.18;100734.88;5078464;28;20512;-72
2022/04/09 10:38:16;;;;;;;8.57;2.40;;;;;;;10.74;86.45;100730.88;5054155;28;20044;-72
2022/04/09 10:40:42;;;;;;;1.35;0.93;;;;;;;11.06;81.63;100754.53;5052084;28;20578;-73
2022/04/09 10:43:37;;;;;;;3.20;1.20;;;;;;;10.95;82.16;100762.09;5049433;28;20080;-73
2022/04/09 10:46:04;;;;;;;3.15;1.00;;;;;;;10.79;88.73;100760.91;5041183;28;20155;-73
2022/04/09 10:48:40;;;;;;;2.25;1.20;;;;;;;10.57;91.74;100762.94;5048957;28;20102;-73
2022/04/09 10:51:14;;;;;;;5.35;1.42;;;;;;;10.32;92.59;100753.81;5049931;28;20052;-73
2022/04/09 10:53:52;;;;;;;0.80;0.52;;;;;;;9.82;89.44;100747.41;5048417;28;20579;-74
2022/04/09 10:56:35;;;;;;;1.08;0.55;;;;;;;9.49;89.49;100744.16;5049100;28;20057;-73
2022/04/09 10:59:17;;;;;;;1.40;0.80;;;;;;;9.34;94.23;100751.59;5049111;28;20052;-74
2022/04/09 11:01:46;;;;;;;1.98;0.77;;;;;;;9.25;97.73;100750.38;5047883;28;20078;-73
2022/04/09 11:04:30;;;;;;;6.38;1.65;;;;;;;9.35;98.90;100736.59;5048188;28;20068;-73
2022/04/09 11:07:20;;;;;;;5.25;1.33;;;;;;;9.68;100.00;100741.84;5047957;28;20092;-73
2022/04/09 11:09:56;;;;;;;4.88;1.35;;;;;;;9.82;100.00;100769.50;5038983;28;20420;-74
2022/04/09 11:12:30;;;;;;;2.78;1.02;;;;;;;9.51;100.00;100781.25;5044873;28;20048;-74
2022/04/09 11:14:58;;;;;;;2.95;1.05;;;;;;;9.47;100.00;100810.84;5037170;28;20056;-74
2022/04/09 11:17:34;;;;;;;2.72;0.82;;;;;;;9.13;98.14;100803.13;5045947;28;20057;-73
2022/04/09 11:20:06;;;;;;;7.38;1.13;;;;;;;8.38;97.81;100814.00;5048399;28;20095;-74
2022/04/09 11:22:54;;;;;;;0.75;0.68;;;;;;;7.64;100.00;100852.53;5047799;28;20079;-74
2022/04/09 11:25:24;;;;;;;3.08;1.13;;;;;;;7.02;100.00;100824.91;5047607;28;20488;-74
2022/04/09 11:27:52;;;;;;;1.60;0.63;;;;;;;7.30;100.00;100820.59;5046563;28;20048;-73
2022/04/09 11:30:20;;;;;;;1.80;0.77;;;;;;;7.04;100.00;100814.31;5045687;28;20145;-72